Time;durP1;ratioP1;P1;durP2;ratioP2;P2;SDS_P1;SDS_P2;PMS_P1;PMS_P2;Temp;Humidity;BMP_temperature;BMP_pressure;BME280_temperature;BME280_humidity;BME280_pressure;Samples;Min_cycle;Max_cycle;Signal;HPM_P1;HPM_P2
2022/07/20 00:00:32;;;;;;;16.67;15.77;;;26.50;9.20;;;;;;6213862;23;20383;-72
2022/07/20 00:03:06;;;;;;;15.60;14.77;;;26.50;9.20;;;;;;6215611;23;20227;-72
2022/07/20 00:05:32;;;;;;;16.10;15.20;;;26.40;9.20;;;;;;6214031;23;20363;-72
2022/07/20 00:07:58;;;;;;;16.27;15.33;;;26.40;9.30;;;;;;6214053;23;20469;-72
2022/07/20 00:13:08;;;;;;;16.03;15.03;;;26.40;9.50;;;;;;6215488;23;20482;-72
2022/07/20 00:15:34;;;;;;;16.07;15.10;;;26.40;9.70;;;;;;6215514;23;20864;-72
2022/07/20 00:18:00;;;;;;;15.77;14.53;;;26.40;9.70;;;;;;6214032;23;20174;-72
2022/07/20 00:20:25;;;;;;;17.63;16.53;;;26.30;9.80;;;;;;6213614;23;20235;-72
2022/07/20 00:22:51;;;;;;;17.47;16.37;;;26.30;9.90;;;;;;6213915;23;20156;-72
2022/07/20 00:25:17;;;;;;;16.77;15.63;;;26.20;10.10;;;;;;6214279;23;20156;-72
2022/07/20 00:27:43;;;;;;;15.73;15.00;;;26.20;10.00;;;;;;6213826;23;20528;-72
2022/07/20 00:30:11;;;;;;;16.30;15.50;;;26.20;10.20;;;;;;6213424;23;20458;-72
2022/07/20 00:32:38;;;;;;;21.43;19.90;;;26.10;10.40;;;;;;6239388;23;20239;-72
2022/07/20 00:35:09;;;;;;;18.27;17.07;;;26.10;10.30;;;;;;6213989;23;20390;-72
2022/07/20 00:37:35;;;;;;;17.30;16.20;;;26.10;11.10;;;;;;6213182;23;20735;-72
2022/07/20 00:40:01;;;;;;;16.50;15.30;;;26.10;10.70;;;;;;6213792;23;20383;-72
2022/07/20 00:42:27;;;;;;;19.03;17.30;;;26.10;11.00;;;;;;6213687;23;20940;-72
2022/07/20 00:44:52;;;;;;;16.97;15.87;;;26.10;11.20;;;;;;6213631;23;20159;-72
2022/07/20 00:47:18;;;;;;;17.30;16.07;;;26.00;11.00;;;;;;6213659;23;20715;-72
2022/07/20 00:49:44;;;;;;;16.43;15.63;;;26.00;11.10;;;;;;6213398;23;20434;-72
2022/07/20 00:52:10;;;;;;;17.10;15.70;;;26.00;11.50;;;;;;6215280;23;20148;-72
2022/07/20 00:54:40;;;;;;;16.47;15.40;;;25.90;11.60;;;;;;6214071;23;20152;-72
2022/07/20 00:57:06;;;;;;;16.70;15.80;;;25.90;11.40;;;;;;6213578;23;20239;-72
2022/07/20 00:59:31;;;;;;;17.30;16.30;;;25.90;11.70;;;;;;6213491;23;20467;-72
2022/07/20 01:01:57;;;;;;;16.47;15.53;;;25.80;11.90;;;;;;6213287;23;20911;-72
2022/07/20 01:04:23;;;;;;;17.10;16.20;;;25.80;11.90;;;;;;6214982;23;20179;-72
2022/07/20 01:06:49;;;;;;;16.33;15.30;;;25.80;12.10;;;;;;6213306;23;20152;-72
2022/07/20 01:09:17;;;;;;;16.90;15.70;;;25.70;12.40;;;;;;6213251;23;20427;-72
2022/07/20 01:11:43;;;;;;;19.37;18.27;;;25.40;12.30;;;;;;6212914;23;20199;-72
2022/07/20 01:14:09;;;;;;;16.77;15.50;;;25.40;12.30;;;;;;6213427;23;20375;-72
2022/07/20 01:16:35;;;;;;;15.50;14.80;;;25.40;12.50;;;;;;6213410;23;20274;-72
2022/07/20 01:19:01;;;;;;;15.63;14.83;;;25.40;12.50;;;;;;6213371;23;20164;-72
2022/07/20 01:21:27;;;;;;;17.43;16.53;;;25.40;12.40;;;;;;6213144;23;20905;-72
2022/07/20 01:23:53;;;;;;;17.70;16.60;;;25.50;12.50;;;;;;6213421;23;20156;-72
2022/07/20 01:26:20;;;;;;;16.20;15.20;;;25.50;12.60;;;;;;6214872;23;20406;-72
2022/07/20 01:28:46;;;;;;;16.80;15.50;;;25.50;12.60;;;;;;6213274;23;20152;-72
2022/07/20 01:31:12;;;;;;;16.60;15.70;;;25.40;12.70;;;;;;6212917;23;20764;-72
2022/07/20 01:33:38;;;;;;;16.53;15.63;;;25.40;12.70;;;;;;6213600;23;20466;-72
2022/07/20 01:36:04;;;;;;;16.97;15.80;;;25.40;12.60;;;;;;6213596;23;20383;-72
2022/07/20 01:38:30;;;;;;;15.90;15.10;;;25.50;12.90;;;;;;6213188;23;20961;-72
2022/07/20 01:40:56;;;;;;;17.13;16.10;;;25.50;12.30;;;;;;6213240;23;20395;-72
2022/07/20 01:43:22;;;;;;;16.37;15.57;;;25.50;12.30;;;;;;6213246;23;20507;-72
2022/07/20 01:45:48;;;;;;;17.70;16.60;;;25.50;12.30;;;;;;6213241;23;20379;-72
2022/07/20 01:48:13;;;;;;;16.77;15.87;;;25.50;12.40;;;;;;6212942;23;20180;-72
2022/07/20 01:50:40;;;;;;;17.77;16.67;;;25.40;12.60;;;;;;6214321;23;20172;-72
2022/07/20 01:53:07;;;;;;;16.83;15.50;;;25.50;12.50;;;;;;6213073;23;20410;-72
2022/07/20 01:55:33;;;;;;;17.30;16.20;;;25.50;12.60;;;;;;6213356;23;20454;-72
2022/07/20 01:57:59;;;;;;;16.57;15.67;;;25.50;12.80;;;;;;6212948;23;20410;-72
2022/07/20 02:00:25;;;;;;;16.47;15.57;;;25.30;13.30;;;;;;6212754;23;20394;-72
2022/07/20 02:02:51;;;;;;;16.23;15.43;;;25.30;13.20;;;;;;6214567;23;20179;-72
2022/07/20 02:05:18;;;;;;;17.40;16.40;;;25.40;13.30;;;;;;6213239;23;20383;-72
2022/07/20 02:07:44;;;;;;;17.30;16.30;;;25.30;13.40;;;;;;6213222;23;20182;-72
2022/07/20 02:10:11;;;;;;;18.10;16.97;;;25.20;13.70;;;;;;6214737;23;20457;-72
2022/07/20 02:12:38;;;;;;;16.20;15.40;;;25.10;14.00;;;;;;6212984;23;20541;-72
2022/07/20 02:15:09;;;;;;;17.80;16.60;;;25.10;14.00;;;;;;6213319;23;20390;-72
2022/07/20 02:17:35;;;;;;;18.20;16.97;;;25.10;14.10;;;;;;6212988;23;20371;-72
2022/07/20 02:20:01;;;;;;;18.17;17.20;;;25.10;13.90;;;;;;6214234;23;20474;-72
2022/07/20 02:22:27;;;;;;;16.67;15.87;;;25.10;14.10;;;;;;6213345;23;20167;-72
2022/07/20 02:24:53;;;;;;;17.10;16.20;;;25.20;13.80;;;;;;6213185;23;20462;-72
2022/07/20 02:27:22;;;;;;;16.80;15.70;;;25.10;13.90;;;;;;6212876;23;20967;-72
2022/07/20 02:29:48;;;;;;;17.10;16.10;;;25.10;13.70;;;;;;6214280;23;20183;-72
2022/07/20 02:32:13;;;;;;;16.73;15.83;;;25.10;13.80;;;;;;6212992;23;20406;-72
2022/07/20 02:34:39;;;;;;;15.40;14.63;;;25.10;13.80;;;;;;6212899;23;20163;-72
2022/07/20 02:37:05;;;;;;;16.63;15.50;;;25.10;13.70;;;;;;6238115;23;20155;-72
2022/07/20 02:39:31;;;;;;;17.60;16.30;;;25.10;13.90;;;;;;6213085;23;20242;-72
2022/07/20 02:41:56;;;;;;;17.00;16.13;;;25.00;14.00;;;;;;6212909;23;20179;-72
2022/07/20 02:44:22;;;;;;;17.13;16.17;;;24.90;14.30;;;;;;6212837;23;20164;-72
2022/07/20 02:46:48;;;;;;;18.50;17.50;;;24.90;14.40;;;;;;6213088;23;20601;-72
2022/07/20 02:49:13;;;;;;;18.57;17.57;;;24.90;14.70;;;;;;6237968;23;20183;-72
2022/07/20 02:51:39;;;;;;;16.70;15.80;;;24.90;14.80;;;;;;6212624;23;20182;-72
2022/07/20 02:54:05;;;;;;;16.90;16.00;;;24.80;14.60;;;;;;6213141;23;20582;-72
2022/07/20 02:56:31;;;;;;;17.23;16.37;;;24.80;14.90;;;;;;6213112;23;20489;-72
2022/07/20 02:58:57;;;;;;;17.70;16.70;;;24.80;14.90;;;;;;6212747;23;20152;-72
2022/07/20 03:01:22;;;;;;;19.17;18.00;;;24.70;15.10;;;;;;6214191;23;20162;-72
2022/07/20 03:03:48;;;;;;;18.17;17.00;;;24.80;15.00;;;;;;6214972;23;20156;-72
2022/07/20 03:06:16;;;;;;;17.40;16.60;;;24.50;15.60;;;;;;6216216;23;20271;-72
2022/07/20 03:08:42;;;;;;;18.80;17.80;;;24.50;15.50;;;;;;6214678;23;20148;-72
2022/07/20 03:11:07;;;;;;;18.23;17.13;;;24.60;15.40;;;;;;6214263;23;20418;-73
2022/07/20 03:13:33;;;;;;;18.00;16.90;;;24.60;15.50;;;;;;6214463;23;20171;-72
2022/07/20 03:15:59;;;;;;;17.67;16.77;;;24.60;15.50;;;;;;6214653;23;20152;-72
2022/07/20 03:18:24;;;;;;;19.30;18.23;;;24.60;15.40;;;;;;6215101;23;20152;-72
2022/07/20 03:20:50;;;;;;;16.93;16.13;;;24.60;15.20;;;;;;6214071;23;20195;-72
2022/07/20 03:23:16;;;;;;;18.53;17.53;;;24.60;15.10;;;;;;6215934;23;20152;-73
2022/07/20 03:25:41;;;;;;;19.20;17.60;;;24.60;15.00;;;;;;6214603;23;20183;-72
2022/07/20 03:28:07;;;;;;;17.87;17.00;;;24.60;15.10;;;;;;6216543;23;20152;-72
2022/07/20 03:30:33;;;;;;;17.57;16.77;;;24.60;15.40;;;;;;6214514;23;20180;-72
2022/07/20 03:32:58;;;;;;;19.10;18.17;;;24.60;15.60;;;;;;6214969;23;20152;-72
2022/07/20 03:35:24;;;;;;;18.23;17.20;;;24.60;15.70;;;;;;6214696;23;20160;-72
2022/07/20 03:37:50;;;;;;;20.20;19.20;;;24.50;16.00;;;;;;6215163;23;20160;-72
2022/07/20 03:40:16;;;;;;;19.17;17.93;;;24.50;15.80;;;;;;6214919;23;20231;-72
2022/07/20 03:42:42;;;;;;;20.77;19.20;;;24.60;15.70;;;;;;6214737;23;20391;-72
2022/07/20 03:45:08;;;;;;;20.33;19.27;;;24.60;15.80;;;;;;6214895;23;20202;-72
2022/07/20 03:47:34;;;;;;;19.60;18.37;;;24.40;16.10;;;;;;6216399;23;20175;-72
2022/07/20 03:50:08;;;;;;;19.40;18.40;;;24.40;16.10;;;;;;6215881;23;20419;-72
2022/07/20 03:52:33;;;;;;;18.23;17.33;;;24.40;16.10;;;;;;6214749;23;20144;-72
2022/07/20 03:54:59;;;;;;;20.50;19.40;;;24.40;16.10;;;;;;6215004;23;20866;-72
2022/07/20 03:57:25;;;;;;;18.77;17.87;;;24.50;16.10;;;;;;6214632;23;20526;-72
2022/07/20 03:59:51;;;;;;;18.60;17.60;;;24.50;16.10;;;;;;6216264;23;20399;-72
2022/07/20 04:02:17;;;;;;;17.13;16.33;;;24.50;16.10;;;;;;6214468;23;20184;-72
2022/07/20 04:04:42;;;;;;;18.53;17.40;;;24.60;16.10;;;;;;6214546;23;20241;-72
2022/07/20 04:07:08;;;;;;;20.50;19.20;;;24.50;16.10;;;;;;6214642;23;20160;-72
2022/07/20 04:09:46;;;;;;;17.70;16.70;;;24.60;16.20;;;;;;6214600;23;20566;-72
2022/07/20 04:12:23;;;;;;;18.10;17.00;;;24.50;16.10;;;;;;6214099;23;20163;-72
2022/07/20 04:14:50;;;;;;;18.67;17.60;;;24.40;16.10;;;;;;6214737;23;20383;-72
2022/07/20 04:17:16;;;;;;;19.00;17.83;;;24.20;16.40;;;;;;6214403;23;20379;-72
2022/07/20 04:19:42;;;;;;;18.40;17.50;;;24.30;16.40;;;;;;6214384;23;20383;-72
2022/07/20 04:22:08;;;;;;;18.70;17.70;;;24.30;16.20;;;;;;6214081;23;20383;-72
2022/07/20 04:24:34;;;;;;;20.33;19.13;;;24.30;16.30;;;;;;6214540;23;20444;-72
2022/07/20 04:27:00;;;;;;;19.70;18.50;;;24.30;16.60;;;;;;6214445;23;20864;-72
2022/07/20 04:29:26;;;;;;;20.03;18.50;;;24.20;17.00;;;;;;6214449;23;20240;-72
2022/07/20 04:31:52;;;;;;;19.57;18.40;;;24.20;16.80;;;;;;6214126;23;20379;-72
2022/07/20 04:34:18;;;;;;;19.20;18.20;;;24.20;17.00;;;;;;6213067;23;20387;-73
2022/07/20 04:36:43;;;;;;;18.50;17.17;;;24.10;17.20;;;;;;6213751;23;20156;-72
2022/07/20 04:39:09;;;;;;;19.20;18.10;;;24.20;17.00;;;;;;6213725;23;20158;-72
2022/07/20 04:41:35;;;;;;;18.50;17.20;;;24.10;17.10;;;;;;6213320;23;20152;-72
2022/07/20 04:44:00;;;;;;;18.30;17.20;;;24.10;17.10;;;;;;6213760;23;20648;-72
2022/07/20 04:46:28;;;;;;;18.30;17.30;;;24.20;16.80;;;;;;6213811;23;20485;-72
2022/07/20 04:48:54;;;;;;;19.03;18.03;;;24.20;16.80;;;;;;6213799;23;20214;-72
2022/07/20 04:51:19;;;;;;;19.37;18.27;;;24.30;16.90;;;;;;6213389;23;20423;-72
2022/07/20 04:53:46;;;;;;;20.43;19.10;;;24.30;16.90;;;;;;6213888;23;20389;-72
2022/07/20 04:56:12;;;;;;;20.27;18.80;;;24.20;16.80;;;;;;6213687;23;20156;-72
2022/07/20 04:58:38;;;;;;;19.97;19.00;;;24.20;17.20;;;;;;6213612;23;20434;-72
2022/07/20 05:01:04;;;;;;;19.43;18.53;;;24.20;17.40;;;;;;6215094;23;20704;-72
2022/07/20 05:03:29;;;;;;;19.50;18.27;;;24.20;17.40;;;;;;6214001;23;20159;-72
2022/07/20 05:05:55;;;;;;;20.50;19.00;;;24.10;17.60;;;;;;6213790;23;20600;-73
2022/07/20 05:08:20;;;;;;;20.47;19.00;;;24.20;17.80;;;;;;6213802;23;20242;-72
2022/07/20 05:10:46;;;;;;;21.37;20.27;;;24.10;17.60;;;;;;6213129;23;20632;-72
2022/07/20 05:13:12;;;;;;;21.80;20.47;;;24.10;17.60;;;;;;6213503;23;20608;-72
2022/07/20 05:15:37;;;;;;;20.57;19.27;;;24.20;17.40;;;;;;6213502;23;20152;-72
2022/07/20 05:18:03;;;;;;;19.60;18.37;;;24.30;17.70;;;;;;6213491;23;20226;-72
2022/07/20 05:20:29;;;;;;;20.43;19.13;;;24.30;17.30;;;;;;6213248;23;20164;-72
2022/07/20 05:22:54;;;;;;;21.53;20.27;;;24.40;17.20;;;;;;6213203;23;20159;-72
2022/07/20 05:35:26;;;;;;;20.63;19.07;;;24.30;16.80;;;;;;6215411;23;20686;-72
2022/07/20 05:37:52;;;;;;;20.20;18.60;;;24.20;17.50;;;;;;6213317;23;20375;-72
2022/07/20 05:40:18;;;;;;;20.60;19.10;;;24.20;17.50;;;;;;6213159;23;20474;-72
2022/07/20 05:42:44;;;;;;;18.87;17.97;;;24.20;17.40;;;;;;6213183;23;20375;-72
2022/07/20 05:45:10;;;;;;;22.30;20.63;;;24.30;17.70;;;;;;6213216;23;20383;-72
2022/07/20 05:47:36;;;;;;;19.13;18.13;;;24.30;17.60;;;;;;6212917;23;20474;-72
2022/07/20 05:50:02;;;;;;;19.90;18.60;;;24.30;17.50;;;;;;6213125;23;20520;-72
2022/07/20 05:52:27;;;;;;;19.70;18.50;;;24.30;17.70;;;;;;6213174;23;20243;-72
2022/07/20 05:54:53;;;;;;;19.90;18.90;;;24.30;17.40;;;;;;6213135;23;20179;-72
2022/07/20 05:57:18;;;;;;;21.83;20.00;;;24.30;17.50;;;;;;6213353;23;20586;-72
2022/07/20 05:59:44;;;;;;;20.37;19.17;;;24.20;17.60;;;;;;6215003;23;20160;-72
2022/07/20 06:02:10;;;;;;;20.23;18.90;;;24.30;17.50;;;;;;6213413;23;20239;-72
2022/07/20 06:04:37;;;;;;;22.70;20.43;;;24.40;17.50;;;;;;6213206;23;20160;-72
2022/07/20 06:07:03;;;;;;;20.07;18.77;;;24.50;17.10;;;;;;6213242;23;20156;-72
2022/07/20 06:09:29;;;;;;;20.20;19.10;;;24.50;17.20;;;;;;6212902;23;20430;-72
2022/07/20 06:11:55;;;;;;;19.20;18.20;;;24.60;17.20;;;;;;6212923;23;20202;-72
2022/07/20 06:14:20;;;;;;;20.03;18.80;;;24.60;17.10;;;;;;6213309;23;20222;-71
2022/07/20 06:16:46;;;;;;;18.53;17.17;;;24.70;17.00;;;;;;6212917;23;20389;-72
2022/07/20 06:19:12;;;;;;;20.53;19.13;;;24.70;16.90;;;;;;6213287;23;20155;-73
2022/07/20 06:21:37;;;;;;;18.10;17.20;;;24.80;16.90;;;;;;6214515;23;20538;-72
2022/07/20 06:24:03;;;;;;;20.27;19.20;;;24.80;16.70;;;;;;6213124;23;20191;-72
2022/07/20 06:26:29;;;;;;;20.67;19.20;;;24.90;16.70;;;;;;6213022;23;20159;-72
2022/07/20 06:28:55;;;;;;;20.23;19.20;;;24.90;16.40;;;;;;6212828;23;20163;-72
2022/07/20 06:31:20;;;;;;;19.23;18.20;;;25.00;16.50;;;;;;6212746;23;20183;-72
2022/07/20 06:33:46;;;;;;;19.70;18.50;;;25.00;16.50;;;;;;6213272;23;20155;-72
2022/07/20 06:36:12;;;;;;;19.67;18.27;;;25.10;16.80;;;;;;6214915;23;20152;-73
2022/07/20 06:38:40;;;;;;;19.20;18.07;;;25.10;16.10;;;;;;6214936;23;20647;-72
2022/07/20 06:41:06;;;;;;;20.70;19.00;;;25.20;16.60;;;;;;6240258;23;20160;-73
2022/07/20 06:43:32;;;;;;;19.33;18.33;;;25.40;15.80;;;;;;6214980;23;20473;-74
2022/07/20 06:45:57;;;;;;;19.53;18.40;;;25.40;15.90;;;;;;6213267;23;20621;-74
2022/07/20 06:48:23;;;;;;;20.80;19.47;;;25.40;16.10;;;;;;6212533;23;20155;-73
2022/07/20 06:50:49;;;;;;;20.63;19.30;;;25.40;16.20;;;;;;6214213;23;20525;-72
2022/07/20 06:53:15;;;;;;;20.70;19.10;;;25.40;16.10;;;;;;6214934;23;20589;-76
2022/07/20 06:55:41;;;;;;;19.53;18.30;;;25.70;15.20;;;;;;6214742;23;20566;-75
2022/07/20 06:58:06;;;;;;;21.13;19.60;;;26.00;14.90;;;;;;6214800;23;20662;-75
2022/07/20 07:00:32;;;;;;;20.73;19.33;;;26.20;14.70;;;;;;6214673;23;20175;-71
2022/07/20 07:02:58;;;;;;;20.60;18.90;;;26.20;14.60;;;;;;6214741;23;20166;-71
2022/07/20 07:05:24;;;;;;;19.27;17.80;;;26.20;15.00;;;;;;6216256;23;20835;-72
2022/07/20 07:07:49;;;;;;;20.70;19.23;;;26.20;15.00;;;;;;6216079;23;20156;-72
2022/07/20 07:10:18;;;;;;;20.67;19.10;;;26.20;15.50;;;;;;6214306;23;20334;-73
2022/07/20 07:12:44;;;;;;;19.57;18.03;;;26.10;15.50;;;;;;6214675;23;20171;-73
2022/07/20 07:15:10;;;;;;;18.77;17.47;;;26.00;15.60;;;;;;6216361;23;20371;-74
2022/07/20 07:17:36;;;;;;;19.40;18.20;;;26.00;16.00;;;;;;6214515;23;20163;-73
2022/07/20 07:20:02;;;;;;;19.60;18.33;;;26.20;16.00;;;;;;6210360;23;20258;-73
2022/07/20 07:22:30;;;;;;;21.30;20.10;;;26.30;15.10;;;;;;6214293;23;20894;-73
2022/07/20 07:24:56;;;;;;;18.43;17.43;;;26.50;15.00;;;;;;6213623;23;20417;-73
2022/07/20 07:27:22;;;;;;;20.33;18.90;;;26.50;14.70;;;;;;6214110;23;20417;-73
2022/07/20 07:29:48;;;;;;;21.20;19.67;;;26.80;14.40;;;;;;6217912;23;20183;-73
2022/07/20 07:32:14;;;;;;;22.30;19.70;;;26.70;14.90;;;;;;6215094;23;20570;-73
2022/07/20 07:34:40;;;;;;;19.93;18.83;;;26.60;14.30;;;;;;6213641;23;20433;-73
2022/07/20 07:37:06;;;;;;;20.47;19.17;;;26.80;14.50;;;;;;6213726;23;20232;-73
2022/07/20 07:39:31;;;;;;;22.00;19.80;;;27.10;13.50;;;;;;6213713;23;20390;-75
2022/07/20 07:41:57;;;;;;;20.83;19.60;;;27.30;13.60;;;;;;6213139;23;20422;-73
2022/07/20 07:44:23;;;;;;;21.53;20.03;;;27.30;13.80;;;;;;6213771;23;20209;-73
2022/07/20 07:46:48;;;;;;;22.60;20.60;;;27.10;14.50;;;;;;6213320;23;20231;-73
2022/07/20 07:49:14;;;;;;;21.40;19.87;;;27.20;14.00;;;;;;6213324;23;20176;-73
2022/07/20 07:51:40;;;;;;;22.40;20.80;;;27.20;14.40;;;;;;6214936;23;20211;-73
2022/07/20 07:54:05;;;;;;;20.43;19.23;;;27.30;12.90;;;;;;6213745;23;20156;-73
2022/07/20 07:56:31;;;;;;;19.57;18.30;;;27.50;12.60;;;;;;6214715;23;20637;-73
2022/07/20 07:58:57;;;;;;;21.13;19.73;;;27.50;13.00;;;;;;6213195;23;20152;-73
2022/07/20 08:01:23;;;;;;;20.87;19.23;;;27.80;12.10;;;;;;6213273;23;20239;-74
2022/07/20 08:03:49;;;;;;;21.03;19.63;;;28.10;11.70;;;;;;6212840;23;20179;-74
2022/07/20 08:06:14;;;;;;;21.60;20.40;;;27.80;11.80;;;;;;6213597;23;20418;-76
2022/07/20 08:08:40;;;;;;;20.20;18.87;;;27.70;12.10;;;;;;6213301;23;20598;-73
2022/07/20 08:11:06;;;;;;;19.73;18.63;;;28.00;11.10;;;;;;6212761;23;20188;-73
2022/07/20 08:13:32;;;;;;;21.10;19.60;;;28.40;10.20;;;;;;6213220;23;20258;-74
2022/07/20 08:15:58;;;;;;;20.47;19.07;;;28.40;9.80;;;;;;6213294;23;20692;-73
2022/07/20 08:18:24;;;;;;;20.40;18.93;;;28.60;10.00;;;;;;6212615;23;20408;-73
2022/07/20 08:20:49;;;;;;;20.70;19.47;;;28.30;9.90;;;;;;6214787;23;20206;-73
2022/07/20 08:23:15;;;;;;;21.13;19.53;;;28.50;9.40;;;;;;6213477;23;20410;-73
2022/07/20 08:25:41;;;;;;;20.87;19.67;;;28.70;9.00;;;;;;6212766;23;20427;-73
2022/07/20 08:28:16;;;;;;;20.40;19.10;;;28.40;9.90;;;;;;6215325;23;20383;-73
2022/07/20 08:30:43;;;;;;;19.70;18.60;;;28.40;9.70;;;;;;6212982;23;20507;-73
2022/07/20 08:33:09;;;;;;;19.97;18.60;;;28.70;10.00;;;;;;6213203;23;20386;-72
2022/07/20 08:35:36;;;;;;;19.40;18.20;;;29.20;8.60;;;;;;6213012;23;20462;-72
2022/07/20 08:38:02;;;;;;;20.23;19.13;;;28.80;9.50;;;;;;6213588;23;20152;-72
2022/07/20 08:40:28;;;;;;;20.63;19.43;;;28.90;9.10;;;;;;6212634;23;20873;-73
2022/07/20 08:42:54;;;;;;;21.03;19.63;;;28.70;9.50;;;;;;6213180;23;20390;-73
2022/07/20 08:45:21;;;;;;;20.07;18.93;;;28.60;9.40;;;;;;6213095;23;20497;-71
2022/07/20 08:47:58;;;;;;;20.00;18.60;;;28.40;9.90;;;;;;6212878;23;20730;-71
2022/07/20 08:50:29;;;;;;;19.80;18.80;;;28.40;10.60;;;;;;6213306;23;20760;-71
2022/07/20 08:52:56;;;;;;;22.30;20.60;;;28.40;10.50;;;;;;6213101;23;20474;-71
2022/07/20 08:55:23;;;;;;;23.57;21.97;;;28.50;10.20;;;;;;6213536;23;20379;-70
2022/07/20 08:57:50;;;;;;;22.00;20.50;;;28.50;10.60;;;;;;6213070;23;20424;-71
2022/07/20 09:00:16;;;;;;;21.03;19.73;;;28.50;11.00;;;;;;6213457;23;20763;-72
2022/07/20 09:03:02;;;;;;;20.63;19.07;;;28.50;10.70;;;;;;6213174;23;20410;-71
2022/07/20 09:05:33;;;;;;;18.73;17.63;;;28.60;11.10;;;;;;6213327;23;20382;-71
2022/07/20 09:08:02;;;;;;;20.33;19.27;;;28.90;10.40;;;;;;6213264;23;20454;-71
2022/07/20 09:10:40;;;;;;;20.33;19.30;;;30.10;8.60;;;;;;6212861;23;20422;-71
2022/07/20 09:13:17;;;;;;;21.70;20.20;;;30.50;7.50;;;;;;6213276;23;20409;-71
2022/07/20 09:15:45;;;;;;;21.37;20.10;;;30.60;7.10;;;;;;6213630;23;20680;-71
2022/07/20 09:18:15;;;;;;;19.80;18.80;;;30.40;7.70;;;;;;6213153;23;20475;-71
2022/07/20 09:20:49;;;;;;;21.03;19.83;;;30.20;8.70;;;;;;6213245;23;20376;-71
2022/07/20 09:23:27;;;;;;;19.63;18.73;;;29.80;9.20;;;;;;6213096;23;20429;-71
2022/07/20 09:25:54;;;;;;;19.40;18.40;;;29.70;8.00;;;;;;6213279;23;20381;-71
2022/07/20 09:28:21;;;;;;;19.47;18.37;;;29.60;6.10;;;;;;6213484;23;20379;-71
2022/07/20 09:30:56;;;;;;;19.63;18.53;;;29.60;6.10;;;;;;6212048;23;20544;-71
2022/07/20 09:33:30;;;;;;;19.37;18.13;;;29.60;5.40;;;;;;6213143;23;20378;-71
2022/07/20 09:36:07;;;;;;;19.10;18.10;;;29.60;5.90;;;;;;6212993;23;20865;-71
2022/07/20 09:38:36;;;;;;;18.70;17.80;;;29.60;5.80;;;;;;6212932;23;20367;-71
2022/07/20 09:41:07;;;;;;;18.20;17.40;;;29.70;6.10;;;;;;6213233;23;20387;-71
2022/07/20 09:43:36;;;;;;;18.87;17.77;;;29.60;5.90;;;;;;6212775;23;20410;-71
2022/07/20 09:46:14;;;;;;;19.53;18.37;;;29.70;6.20;;;;;;6214629;23;20851;-71
2022/07/20 09:48:48;;;;;;;19.97;18.57;;;29.70;6.70;;;;;;6212702;23;20391;-71
2022/07/20 09:51:43;;;;;;;20.20;18.77;;;29.70;6.90;;;;;;6212752;23;20485;-71
2022/07/20 09:54:13;;;;;;;20.23;18.90;;;30.20;6.50;;;;;;6213156;23;20419;-71
2022/07/20 09:56:44;;;;;;;18.93;18.00;;;30.30;6.00;;;;;;6212989;23;20371;-71
2022/07/20 09:59:14;;;;;;;20.80;19.37;;;30.40;5.80;;;;;;6214552;23;20391;-71
2022/07/20 10:01:45;;;;;;;18.97;17.87;;;30.70;5.20;;;;;;6212890;23;20387;-71
2022/07/20 10:04:13;;;;;;;19.33;18.27;;;31.00;4.90;;;;;;6204173;23;20379;-71
2022/07/20 10:06:42;;;;;;;19.53;17.90;;;31.30;4.50;;;;;;6212086;23;20774;-71
2022/07/20 10:09:10;;;;;;;18.97;17.80;;;31.60;4.30;;;;;;6212169;23;20713;-71
2022/07/20 10:11:41;;;;;;;19.40;18.10;;;31.40;4.40;;;;;;6211426;23;20399;-71
2022/07/20 10:14:08;;;;;;;20.83;19.63;;;31.40;4.70;;;;;;6212435;23;20469;-71
2022/07/20 10:16:36;;;;;;;19.87;18.53;;;31.60;4.50;;;;;;6212498;23;20379;-71
2022/07/20 10:19:03;;;;;;;18.90;17.93;;;31.60;4.40;;;;;;6213792;23;20367;-71
2022/07/20 10:21:51;;;;;;;19.60;18.60;;;32.20;3.30;;;;;;6211855;23;20723;-71
2022/07/20 10:24:33;;;;;;;18.70;17.80;;;32.80;2.40;;;;;;6212653;23;20379;-72
2022/07/20 10:27:15;;;;;;;18.50;17.50;;;32.70;3.30;;;;;;6211805;23;20802;-72
2022/07/20 10:29:47;;;;;;;18.13;17.10;;;32.60;3.30;;;;;;6212021;23;20429;-71
2022/07/20 10:32:16;;;;;;;20.97;18.20;;;32.50;3.50;;;;;;6212043;23;20454;-72
2022/07/20 10:34:45;;;;;;;19.10;18.20;;;32.30;3.70;;;;;;6211922;23;20441;-71
2022/07/20 10:37:28;;;;;;;19.80;18.77;;;32.20;3.20;;;;;;6212667;23;20379;-71
2022/07/20 10:40:22;;;;;;;19.33;18.17;;;32.10;3.90;;;;;;6216634;23;20763;-71
2022/07/20 10:43:09;;;;;;;18.80;17.80;;;32.10;3.70;;;;;;6212916;23;20383;-72
2022/07/20 10:45:35;;;;;;;18.60;17.70;;;31.90;4.10;;;;;;6212770;23;20375;-71
2022/07/20 10:48:11;;;;;;;18.83;18.00;;;32.00;4.50;;;;;;6212900;23;20383;-71
2022/07/20 10:50:39;;;;;;;20.33;19.13;;;32.10;4.20;;;;;;6212290;23;20437;-71
2022/07/20 10:53:10;;;;;;;18.53;17.53;;;31.90;4.70;;;;;;6212422;23;20387;-71
2022/07/20 10:55:36;;;;;;;19.77;18.37;;;31.90;4.70;;;;;;6212590;23;20385;-71
2022/07/20 10:58:04;;;;;;;18.80;17.90;;;31.80;4.70;;;;;;6212959;23;20844;-71
2022/07/20 11:00:32;;;;;;;19.57;18.37;;;31.80;4.40;;;;;;6212280;23;20269;-72
2022/07/20 11:02:58;;;;;;;18.40;17.50;;;31.80;4.50;;;;;;6212463;23;20382;-71
2022/07/20 11:05:24;;;;;;;18.30;17.30;;;31.90;4.10;;;;;;6212455;23;20384;-71
2022/07/20 11:07:50;;;;;;;19.23;18.13;;;32.10;4.20;;;;;;6212735;23;20766;-71
2022/07/20 11:10:34;;;;;;;19.60;18.50;;;32.20;3.70;;;;;;6212116;23;20250;-71
2022/07/20 11:13:03;;;;;;;20.57;19.47;;;32.40;3.80;;;;;;6212282;23;20168;-71
2022/07/20 11:18:53;;;;;;;18.17;17.30;;;32.10;4.10;;;;;;6212996;23;20444;-72
2022/07/20 11:21:32;;;;;;;18.20;17.20;;;32.40;3.70;;;;;;6212077;23;20906;-72
2022/07/20 11:23:58;;;;;;;18.10;17.17;;;32.20;4.10;;;;;;6208750;23;20402;-71
2022/07/20 11:26:27;;;;;;;19.60;18.60;;;32.50;3.60;;;;;;6208730;23;20832;-72
2022/07/20 11:28:55;;;;;;;19.63;18.33;;;32.10;3.80;;;;;;6209871;23;20469;-71
2022/07/20 11:31:30;;;;;;;18.47;17.47;;;31.90;4.20;;;;;;6214011;23;20449;-71
2022/07/20 11:34:01;;;;;;;19.10;17.90;;;32.40;3.30;;;;;;6214399;23;20382;-71
2022/07/20 11:36:31;;;;;;;19.97;19.03;;;32.30;4.10;;;;;;6214157;23;20383;-72
2022/07/20 11:39:11;;;;;;;19.60;18.80;;;32.10;5.00;;;;;;6214220;23;20822;-72
2022/07/20 11:41:40;;;;;;;19.10;18.10;;;31.90;5.00;;;;;;6213915;23;20386;-72
2022/07/20 11:44:13;;;;;;;19.73;18.70;;;31.80;4.90;;;;;;6214253;23;20415;-72
2022/07/20 11:46:41;;;;;;;20.00;19.00;;;31.70;4.90;;;;;;6214093;23;20406;-71
2022/07/20 11:49:13;;;;;;;20.00;19.10;;;31.50;4.80;;;;;;6214017;23;20385;-71
2022/07/20 11:51:40;;;;;;;21.03;19.70;;;31.50;5.40;;;;;;6213951;23;20748;-71
2022/07/20 11:54:06;;;;;;;20.67;19.60;;;31.70;5.40;;;;;;6214274;23;20375;-71
2022/07/20 11:56:34;;;;;;;21.30;19.93;;;31.60;5.60;;;;;;6214254;23;20410;-71
2022/07/20 11:59:02;;;;;;;21.30;20.20;;;31.50;6.20;;;;;;6214103;23;20458;-71
2022/07/20 12:01:33;;;;;;;21.67;20.60;;;32.00;5.50;;;;;;6213816;23;20430;-71
2022/07/20 12:04:06;;;;;;;21.07;19.83;;;31.80;5.80;;;;;;6214089;23;20411;-71
2022/07/20 12:06:34;;;;;;;20.20;19.20;;;31.60;6.40;;;;;;6213878;23;20376;-71
2022/07/20 12:09:13;;;;;;;21.87;20.67;;;31.60;6.40;;;;;;6214148;23;20387;-71
2022/07/20 12:11:58;;;;;;;21.97;20.83;;;31.50;6.00;;;;;;6214130;23;20426;-71
2022/07/20 12:14:36;;;;;;;21.00;19.80;;;31.50;6.40;;;;;;6213822;23;20467;-74
2022/07/20 12:17:21;;;;;;;20.33;19.13;;;31.40;6.30;;;;;;6214909;23;20450;-74
2022/07/20 12:19:49;;;;;;;20.83;19.77;;;31.50;6.40;;;;;;6214404;23;20395;-75
2022/07/20 12:22:23;;;;;;;21.57;20.40;;;32.20;5.20;;;;;;6213946;23;20375;-74
2022/07/20 12:24:56;;;;;;;21.90;20.37;;;31.90;5.40;;;;;;6214641;23;20803;-75
2022/07/20 12:27:28;;;;;;;22.73;21.63;;;31.80;6.50;;;;;;6214591;23;20383;-75
2022/07/20 12:29:54;;;;;;;22.67;21.27;;;31.60;6.40;;;;;;6213583;23;20465;-74
2022/07/20 12:32:34;;;;;;;22.40;21.00;;;31.80;6.50;;;;;;6214487;23;20387;-75
2022/07/20 12:35:01;;;;;;;22.40;20.87;;;31.70;6.50;;;;;;6214475;23;20382;-74
2022/07/20 12:37:47;;;;;;;22.00;21.00;;;31.50;6.30;;;;;;6214179;23;20390;-75
2022/07/20 12:40:30;;;;;;;22.13;21.03;;;31.50;6.60;;;;;;6214077;23;20383;-75
2022/07/20 12:42:55;;;;;;;24.13;22.20;;;31.50;7.40;;;;;;6214331;23;20465;-75
2022/07/20 12:45:21;;;;;;;24.27;22.70;;;31.50;7.40;;;;;;6214233;23;20415;-75
2022/07/20 12:47:46;;;;;;;25.23;23.63;;;31.50;8.10;;;;;;6214401;23;20207;-74
2022/07/20 12:50:12;;;;;;;27.73;26.13;;;31.50;8.00;;;;;;6213877;23;20208;-75